Huvudsida
METAR-TAF:

METAR-TAF

Flygplatser :

Crotone, Italien

latitud: 39-00N, longitud: 017-04E, höjd: 155 m

Aktuellt väderrapport

Denna rapport gjordes för 59 minuter sedan, klockan 11:50 UTC
Vind 19 kt från nord
Temperatur 12°C
Fuktighet 40%
Tryck 1027 hPa
Sikt 10 km eller mer
Inga moln under 1 500 m eller inga cumulonimbus

METAR: LIBC 221150Z 36019KT CAVOK 12/M01 Q1027

Tid: 13:49 (12:49 UTC)

Väderprognos

Denna rapport gjordes för 1 timme och 49 minuter sedan, klockan 11:00 UTC
Prognos gäller från 22 kl. 12 UTC till 23 kl. 12 UTC
Vind 18 kt från nord i byarna ända upp till 28 kt
Sikt 10 km eller mer
Inga moln under 1 500 m eller inga cumulonimbus
Blir
från 22 kl. 17 UTC till 22 kl. 19 UTC
Vind 5 kt varierande vindriktning

TAF: LIBC 221100Z 2212/2312 01018G28KT CAVOK BECMG 2217/2219 VRB05KT

Aktuella väderrapporter och prognoser från 4000 flygplatser (METAR- och TAF-rapporter).

De tillgängliga stationerna syns som gula och röda prickar på kartan.

För musen över prickarna för att se namnen på stationerna.

Klicka sedan för att få väderrapporter och prognoser.

För att ändra kartan: Klicka på de gröna knapparna med ett svart kors på för att zooma in; den gröna knappen med ett streck på för att zooma ut; eller på de gröna pilarna för angränsande kartor.


METAR-TAF: